Aviation Digital Data Service (ADDS)

Output produced by METARs form (1113 UTC 24 April 2017)
found at http://www.aviationweather.gov/adds/metars/
 
TAF CYXX 240538Z 2406/2506 17006KT 5SM -SHRA BR FEW007 BKN020 OVC030 
     TEMPO 2406/2409 P6SM -SHRA SCT020 OVC030 
     FM240900 36006KT P6SM SCT020 BKN030 
     TEMPO 2409/2415 5SM -SHRA BR BKN020 OVC030 
     FM241500 36006KT P6SM SCT020 BKN030 
     BECMG 2419/2421 24010KT 
     FM250100 18006KT P6SM SCT030 RMK NXT FCST BY 241200Z
       
TAF CYLT 240817Z 2408/2420 31005KT P6SM FEW015 BKN040 RMK NXT FCST BY 241200Z
       
TAF AMD CYAH 241111Z 2411/2421 27020G30KT 11/2SM -SN BLSN OVC020 
     TEMPO 2411/2415 6SM -SN SCT020 OVC030 
     FM241500 27025G35KT 3SM -SN OVC020 
     TEMPO 2415/2421 1SM -SN BLSN RMK FCST BASED ON AUTO OBS. NXT FCST BY 241800Z
       
TAF CYAM 240738Z 2408/2420 VRB03KT P6SM OVC050 
     TEMPO 2408/2413 P6SM -SHSNRA 
     BECMG 2410/2412 11010G20KT 
     FM241300 11015G25KT P6SM OVC060 
     FM241900 11015G25KT P6SM FEW030 RMK NXT FCST BY 241400Z
       
TAF CYAT 240838Z 2409/2419 27005KT P6SM SKC 
     BECMG 2415/2417 30008KT RMK FCST BASED ON AUTO OBS. NXT FCST BY 241500Z
       
TAF AMD CYAY 241037Z 2410/2420 22012G22KT P6SM SCT007 BKN030 
     TEMPO 2410/2412 4SM BR OVC007 
     FM241200 22015G25KT P6SM -SN SCT007 OVC030 
     TEMPO 2412/2414 4SM -SN BR OVC007 
     BECMG 2412/2414 21020G30KT 
     FM241400 21020G30KT P6SM BKN012 
     TEMPO 2414/2418 BKN025 
     FM241800 25020G30KT P6SM SCT030 RMK FCST BASED ON AUTO OBS. NXT FCST BY 241400Z
       
TAF CYBC 240739Z 2408/2420 28012G22KT P6SM SCT040 
     TEMPO 2408/2414 OVC040 
     FM241500 28015G25KT P6SM SCT040 RMK FCST BASED ON AUTO OBS. NXT FCST BY 241400Z
       
TAF CYBG 240531Z 2406/2506 30012G22KT P6SM BKN040 
     FM240900 29010G20KT P6SM FEW040 
     BECMG 2422/2424 30005KT RMK NXT FCST BY 241200Z
       
TAF CYBK 240538Z 2406/2418 34015KT P6SM FEW015 BKN050 
     TEMPO 2406/2418 5SM IC BKN015 
     BECMG 2413/2415 32012KT RMK NXT FCST BY 241200Z
       
TAF CYBN 241048Z 2410/2422 VRB03KT P6SM SCT090 BKN200 
     FM241300 12010KT P6SM SCT030 RMK FCST BASED ON AUTO OBS. NXT FCST BY 241200Z
       
TAF CYBR 240538Z 2406/2418 12010KT P6SM SCT120 BKN220 
     BECMG 2407/2409 BKN070 OVC120 
     FM241200 06010KT 2SM -SN OVC025 
     TEMPO 2412/2418 5SM -SN SCT025 OVC040 RMK NXT FCST BY 241200Z
       
TAF AMD CYBX 240807Z 2408/2420 23015G25KT 6SM BR OVC003 
     TEMPO 2408/2416 2SM -FZDZ -SN BR 
     PROB30 2408/2416 1/2SM FZFG VV002 
     FM241600 24020G30KT P6SM BKN030 
     FM241800 27020G30KT P6SM SCT030 RMK NXT FCST BY 241400Z
       
TAF CYCB 240638Z 2407/2419 08005KT P6SM SCT100 
     BECMG 2414/2416 10010KT RMK NXT FCST BY 241300Z
       
TAF AMD CYCO 241108Z 2411/2419 VRB03KT 2SM IC BR SCT200 
     TEMPO 2411/2417 P6SM NSW 
     FM241700 12005KT P6SM IC SCT200 RMK NXT FCST BY 241300Z
       
TAF CYCX 240915Z 2409/2421 22010KT P6SM SCT020 BKN100 
     TEMPO 2409/2412 OVC020 
     BECMG 2410/2412 32010KT RMK NXT FCST BY 241200Z
       
TAF CYCY 240638Z 2407/2419 27005KT P6SM SCT015 
     TEMPO 2407/2419 5SM -SN BKN015 RMK FCST BASED ON AUTO OBS. NXT FCST BY 241300Z
       
TAF CYDB 240538Z 2406/2418 11005KT P6SM FEW240 RMK FCST BASED ON AUTO OBS. NXT FCST BY 241200Z
       
TAF CYDF 240738Z 2408/2420 22006KT P6SM -SN BKN020 
     TEMPO 2408/2411 P6SM NSW BKN025 
     PROB30 2408/2411 2SM BR OVC004 
     FM241100 22012KT P6SM OVC020 
     TEMPO 2411/2415 P6SM -SN BKN008 OVC020 
     BECMG 2412/2414 24015G25KT 
     FM241500 24015G25KT P6SM BKN020 RMK NXT FCST BY 241400Z
       
TAF CYDN 240538Z 2406/2418 13008KT P6SM SCT120 BKN240 
     BECMG 2408/2410 BKN080 
     FM241200 06010KT P6SM -SN OVC070 
     TEMPO 2412/2418 3SM -SN OVC030 
     BECMG 2414/2416 07015KT RMK FCST BASED ON AUTO OBS. NXT FCST BY 241200Z
       
TAF CYDP 240938Z 2410/2422 VRB03KT 3SM -SN BKN020 OVC090 
     TEMPO 2410/2414 11/2SM -SN OVC015 
     BECMG 2410/2412 29020G30KT 
     FM241400 29025G35KT 2SM -SN BLSN OVC015 RMK NXT FCST BY 241400Z
       
TAF AMD CYED 240509Z 2405/2412 10010KT P6SM SCT004 OVC015 
     TEMPO 2405/2412 1SM -FZDZ -SN BR OVC003 RMK FCST BASED ON AUTO OBS. NXT FCST BY 240600Z
       
TAF AMD CYEG 241049Z 2410/2506 VRB03KT 3/8SM -SN FG OVC002 
     TEMPO 2410/2416 11/2SM -SN BR SCT002 OVC030 
     FM241600 VRB03KT 1SM -SN BR OVC006 
     TEMPO 2416/2420 4SM -SN SCT006 OVC015 
     FM242000 02005KT 5SM -SN BR SCT006 OVC015 
     FM242300 02005KT 6SM -SN BKN015 OVC030 
     FM250400 06005KT P6SM BKN008 OVC015 RMK NXT FCST BY 241200Z
       
TAF AMD CYEK 240937Z 2409/2418 33012KT P6SM FEW008 
     TEMPO 2409/2415 2SM -SN BR BKN008 
     FM241500 33012KT P6SM FEW015 
     TEMPO 2415/2418 4SM -SN OVC015 RMK FCST BASED ON AUTO OBS. NXT FCST BY 241200Z
       
TAF CYER 240838Z 2409/2419 29005KT P6SM FEW030 
     TEMPO 2409/2415 BKN020 OVC030 
     FM241500 30008KT P6SM FEW030 RMK FCST BASED ON AUTO OBS. NXT FCST BY 241500Z
       
TAF CYEV 240638Z 2407/2419 VRB03KT P6SM SKC 
     FM241300 29005KT P6SM BKN030 
     PROB30 2413/2419 1/2SM -SN FZFG BKN002 RMK NXT FCST BY 241300Z
       
TAF CYFB 240538Z 2406/2506 VRB03KT P6SM OVC025 
     TEMPO 2406/2412 4SM -SN OVC020 
     BECMG 2410/2412 33016KT 
     FM241200 33016KT P6SM SCT015 BKN050 
     TEMPO 2412/2415 2SM -SN BLSN BKN010 OVC040 
     FM241500 34020G30KT 5SM -SN OVC025 
     TEMPO 2415/2418 1SM -SN BLSN OVC015 
     FM241800 33025G35KT 1/2SM SN BLSN VV008 
     FM250000 33025G35KT 3/4SM -SN BLSN OVC015 RMK NXT FCST BY 241200Z
       
TAF CYFC 240541Z 2406/2418 20007KT P6SM SCT080 BKN150 
     BECMG 2407/2409 30008KT 
     FM240900 30008KT P6SM SCT030 BKN080 
     TEMPO 2409/2412 BKN020 
     FM241200 30008KT P6SM SCT080 BKN120 RMK FCST BASED ON AUTO OBS. NXT FCST BY 241200Z
       
TAF CYFS 240538Z 2406/2418 12005KT P6SM BKN100 RMK NXT FCST BY 241200Z
       
TAF CYGL 240538Z 2406/2506 28018G28KT 6SM -SN SCT020 BKN040 
     TEMPO 2406/2420 3SM -SN BLSN OVC020 
     PROB30 2406/2412 11/2SM -SN BLSN 
     FM242000 28012G22KT P6SM BKN025 
     FM250000 29012KT P6SM FEW025 RMK NXT FCST BY 241200Z
       
TAF CYGP 240739Z 2408/2420 30005KT P6SM SCT020 
     TEMPO 2408/2412 BKN020 
     BECMG 2408/2410 29012KT 
     FM241200 28012G22KT P6SM SCT030 
     TEMPO 2412/2420 BKN030 RMK NXT FCST BY 241400Z
       
TAF CYGQ 240738Z 2408/2420 08004KT P6SM SKC 
     FM241200 08010KT P6SM OVC100 
     FM241800 10010G20KT 21/2SM -SN OVC030 RMK NXT FCST BY 241400Z
       
TAF CYGR 241038Z 2411/2423 22010G20KT P6SM FEW020 BKN070 BKN100 
     TEMPO 2411/2421 BKN020 
     BECMG 2411/2413 28012KT 
     FM242100 28012KT P6SM FEW020 RMK NXT FCST BY 241400Z
       
TAF CYGV 240739Z 2408/2420 23004KT P6SM OVC025 
     TEMPO 2408/2409 4SM -RASN BR OVC020 
     BECMG 2408/2409 30012G22KT 
     FM240900 30015G25KT P6SM SCT030 
     TEMPO 2409/2415 BKN020 
     FM241500 28015G25KT P6SM BKN040 
     FM241800 26018G28KT 5SM -SHSN BKN040 RMK FCST BASED ON AUTO OBS. NXT FCST BY 241400Z
       
TAF CYGW 240538Z 2406/2418 26025G35KT 1/2SM SN BLSN BKN010 OVC025 RMK FCST BASED ON AUTO OBS. NXT FCST BY 241200Z
       
TAF CYGX 240638Z 2407/2419 07005KT P6SM SKC RMK NXT FCST BY 241300Z
       
TAF CYHD 240738Z 2408/2420 08010KT P6SM BKN210 
     FM241100 10010G20KT P6SM SCT020 OVC080 
     FM241300 10010G20KT 6SM -SN OVC020 
     TEMPO 2413/2420 3SM -SN RMK FCST BASED ON AUTO OBS. NXT FCST BY 241400Z
       
TAF AMD CYHK 240926Z 2409/2418 30012KT 6SM -SN BKN010 BKN100 
     TEMPO 2409/2412 1SM -SN BR OVC004 
     FM241200 29012KT P6SM SCT010 
     TEMPO 2412/2418 3SM -SN BR OVC010 RMK FCST BASED ON AUTO OBS. NXT FCST BY 241200Z
       
TAF CYHM 240538Z 2406/2506 09005KT P6SM FEW250 
     BECMG 2411/2413 05015KT 
     FM241900 05015G25KT P6SM BKN250 
     BECMG 2502/2504 05012KT RMK NXT FCST BY 241200Z
       
TAF CYHU 240538Z 2406/2506 02012KT P6SM FEW025 BKN090 
     FM241400 04010KT P6SM SCT120 RMK FCST BASED ON AUTO OBS. NXT FCST BY 241200Z
       
TAF CYHY 240538Z 2406/2418 08010KT P6SM SCT060 RMK NXT FCST BY 241200Z
       
TAF CYHZ 240838Z 2409/2506 21008KT P6SM SKC 
     PROB30 2409/2410 BKN005 
     FM241200 25008KT P6SM SCT012 
     BECMG 2412/2414 31008KT 
     FM241500 31008KT P6SM BKN020 
     FM241700 30012KT P6SM SCT040 BKN080 
     FM242300 32008KT P6SM SCT080 
     FM250200 33008KT P6SM SKC 
     BECMG 2504/2506 03008KT RMK NXT FCST BY 241200Z
       
TAF CYIO 240638Z 2407/2419 16006KT P6SM SKC RMK FCST BASED ON AUTO OBS. NXT FCST BY 241300Z
       
TAF CYIV 240038Z 2401/2413 01006KT P6SM FEW040 
     FM240600 08006KT P6SM SCT200 RMK NXT FCST BY 240700Z
       
TAF CYJT 240538Z 2406/2506 24010KT P6SM OVC015 
     TEMPO 2406/2410 5SM BR BKN006 OVC015 
     FM241000 23010KT P6SM SCT006 OVC012 
     TEMPO 2410/2414 5SM -SN -DZ BR OVC006 
     PROB30 2410/2414 2SM -FZDZ BR OVC005 
     FM241400 26012G22KT P6SM BKN030 
     FM241900 28015G25KT P6SM SCT030 
     FM250000 28015G25KT P6SM -SHSN BKN030 RMK NXT FCST BY 241200Z
       
TAF CYKA 240638Z 2407/2419 VRB03KT P6SM SCT120 
     FM241100 VRB03KT P6SM BKN050 BKN120 
     TEMPO 2411/2419 P6SM -SHRA 
     BECMG 2415/2417 28010KT RMK NXT FCST BY 241300Z
       
TAF CYKF 240738Z 2408/2420 VRB03KT P6SM SKC 
     BECMG 2410/2412 08010G20KT RMK FCST BASED ON AUTO OBS. NXT FCST BY 241400Z
       
TAF CYKJ 240938Z 2410/2422 09008KT P6SM SKC RMK FCST BASED ON AUTO OBS. NXT FCST BY 241300Z
       
TAF CYKL 240139Z 2402/2414 28015G25KT 11/2SM -SN OVC015 
     TEMPO 2402/2403 6SM -SN OVC025 
     FM240300 28015G25KT P6SM -SN OVC025 
     TEMPO 2403/2406 21/2SM -SN OVC020 
     FM240600 28015G25KT P6SM BKN025 
     TEMPO 2406/2414 4SM -SN BKN020 RMK FCST BASED ON AUTO OBS. NXT FCST BY 240800Z
       
TAF CYKZ 240538Z 2406/2418 35006KT P6SM FEW090 SCT250 
     BECMG 2411/2413 08007KT 
     FM241500 08010KT P6SM SKC RMK NXT FCST BY 241200Z
       
TAF AMD CYLL 240622Z 2406/2418 10012KT 4SM BR OVC004 
     TEMPO 2406/2416 P6SM NSW SCT004 OVC012 
     FM241600 10012KT 6SM BR OVC008 RMK FCST BASED ON AUTO OBS. NXT FCST BY 241200Z
       
TAF CYLT 240817Z 2408/2420 31005KT P6SM FEW015 BKN040 RMK NXT FCST BY 241200Z
       
TAF CYLW 240638Z 2407/2419 VRB03KT P6SM BKN080 
     TEMPO 2407/2408 P6SM -SHRA 
     FM240800 VRB03KT P6SM SCT030 BKN060 
     TEMPO 2408/2416 P6SM -SHRA FEW020 BKN030 OVC060 
     FM241600 VRB03KT P6SM BKN060 
     TEMPO 2416/2419 P6SM -SHRA RMK FCST BASED ON AUTO OBS. NXT FCST BY 241300Z
       
TAF CYMA 240538Z 2406/2418 35007KT P6SM SKC RMK NXT FCST BY 241200Z
       
TAF CYMH 240838Z 2409/2421 22010G20KT P6SM FEW008 
     TEMPO 2409/2411 BKN008 
     FM241100 22012G22KT P6SM SCT008 OVC015 
     TEMPO 2411/2414 5SM -SN BKN008 OVC015 
     FM241400 22015G25KT P6SM BKN015 
     TEMPO 2414/2418 BKN025 
     BECMG 2416/2418 27015G25KT 
     FM241800 27015G25KT P6SM BKN030 RMK FCST BASED ON AUTO OBS. NXT FCST BY 241400Z
       
TAF CYMM 240638Z 2407/2419 VRB03KT P6SM FEW040 BKN080 OVC160 
     FM241000 09005KT P6SM SCT020 OVC040 
     TEMPO 2410/2413 21/2SM -SN SCT008 OVC020 
     FM241300 09008KT 6SM -SN OVC015 
     TEMPO 2413/2419 2SM -SN OVC008 RMK FCST BASED ON AUTO OBS. NXT FCST BY 241300Z
       
TAF CYMO 240538Z 2406/2418 27005KT P6SM SKC 
     BECMG 2406/2408 VRB03KT RMK FCST BASED ON AUTO OBS. NXT FCST BY 241200Z
       
TAF CYMX 240538Z 2406/2506 01006KT P6SM BKN080 
     FM241400 06008KT P6SM SCT120 RMK NXT FCST BY 241200Z
       
TAF AMD CYNA 241103Z 2411/2420 27022G34KT P6SM BKN020 
     TEMPO 2411/2415 SCT020 
     FM241500 29017G27KT P6SM BKN030 
     PROB30 2418/2420 2SM -SHSN RMK FCST BASED ON AUTO OBS. NXT FCST BY 241400Z
       
TAF CYNE 240638Z 2407/2419 10006KT P6SM BKN220 
     FM241200 09010KT P6SM BKN120 RMK FCST BASED ON AUTO OBS. NXT FCST BY 241300Z
       
TAF CYOD 240531Z 2406/2506 08010KT 3SM -SN SCT012 OVC020 
     TEMPO 2406/2411 11/2SM -SN BR SCT008 OVC012 
     FM241100 09012KT P6SM SCT008 OVC015 
     TEMPO 2411/2416 4SM -SN BKN008 OVC015 
     FM241600 10012KT 6SM -SN BKN015 OVC025 RMK NXT FCST BY 241200Z
       
TAF CYOJ 240638Z 2407/2419 12005KT P6SM SKC 
     BECMG 2409/2411 BKN040 RMK FCST BASED ON AUTO OBS. NXT FCST BY 241300Z
       
TAF CYOW 240838Z 2409/2506 36012KT P6SM BKN080 
     FM241200 03012KT P6SM SCT100 
     BECMG 2413/2415 05010KT 
     BECMG 2500/2502 08012KT RMK NXT FCST BY 241200Z
       
TAF CYOY 241015Z 2410/2422 33005KT P6SM SCT030 BKN130 
     FM241500 33005KT P6SM FEW030 RMK FCST BASED ON AUTO OBS 241000-241300Z. NXT FCST BY 241200Z
       
TAF CYPA 240638Z 2407/2419 09012G22KT P6SM -SN SCT012 OVC025 
     TEMPO 2407/2416 2SM -SN BKN012 OVC030 
     FM241600 11015G25KT P6SM SCT020 BKN040 
     TEMPO 2416/2419 3SM -SN BKN020 OVC040 RMK NXT FCST BY 241300Z
       
TAF CYPE 240638Z 2407/2419 06008KT P6SM -SN OVC015 
     TEMPO 2407/2419 P6SM NSW SCT015 OVC030 RMK NXT FCST BY 241300Z
       
TAF AMD CYPH 241027Z 2410/2418 33035G45KT 1/8SM +SN BLSN VV005 RMK FCST BASED ON AUTO OBS. NXT FCST BY 241200Z
       
TAF CYPQ 240939Z 2410/2422 04007KT P6SM BKN210 
     FM241400 08010KT P6SM SKC RMK FCST BASED ON AUTO OBS. NXT FCST BY 241400Z
       
TAF AMD CYPR 240945Z 2409/2419 VRB03KT P6SM SCT020 
     TEMPO 2409/2414 BKN020 RMK FCST BASED ON AUTO OBS. NXT FCST BY 241300Z
       
TAF CYPX 232338Z 2400/2412 36025G35KT 1/4SM -SN BLSN VV008 
     TEMPO 2400/2412 2SM -SN OVC020 RMK FCST BASED ON AUTO OBS. NXT FCST BY 240600Z
       
TAF CYQB 240538Z 2406/2506 26008KT P6SM FEW080 
     BECMG 2407/2409 32010KT 
     FM241500 27010KT P6SM FEW150 
     BECMG 2503/2505 07010KT RMK NXT FCST BY 241200Z
       
TAF CYQD 240638Z 2407/2419 11008KT P6SM BKN220 
     FM240900 10010KT P6SM SCT050 BKN120 RMK NXT FCST BY 241300Z
       
TAF AMD CYQF 240914Z 2409/2418 VRB03KT P6SM SCT004 OVC008 
     TEMPO 2409/2416 11/2SM BR OVC004 
     PROB40 2411/2416 1/2SM FZFG VV002 
     FM241600 36005KT 4SM BR BKN008 OVC020 RMK NXT FCST BY 241200Z
       
TAF CYQG 240538Z 2406/2506 02008KT P6SM SKC 
     BECMG 2414/2416 08012KT 
     FM241900 09015KT P6SM BKN250 RMK NXT FCST BY 241200Z
       
TAF CYQH 240538Z 2406/2418 VRB03KT P6SM BKN050 
     TEMPO 2406/2418 BKN020 RMK NXT FCST BY 241200Z
       
TAF AMD CYQI 240841Z 2408/2418 23010KT 5SM BR OVC002 
     BECMG 2409/2411 P6SM NSW FEW005 
     FM241500 26009KT P6SM SKC 
     BECMG 2416/2418 32010KT RMK NXT FCST BY 241200Z
       
TAF CYQK 240738Z 2408/2420 09010KT P6SM BKN210 
     FM240900 09012KT P6SM BKN090 OVC160 
     FM241100 09012G22KT P6SM -SN SCT015 OVC030 
     FM241300 09012G22KT 2SM -SN OVC010 
     TEMPO 2413/2420 6SM -SN 
     PROB30 2416/2419 21/2SM -PL BR OVC009 RMK NXT FCST BY 241400Z
       
TAF AMD CYQL 240949Z 2409/2418 VRB03KT P6SM SCT005 OVC100 
     TEMPO 2409/2414 4SM -SHRA BR OVC005 
     FM241400 34008KT P6SM SCT008 BKN040 
     TEMPO 2414/2418 5SM -SHRA BR BKN008 OVC040 RMK FCST BASED ON AUTO OBS. NXT FCST BY 241200Z
       
TAF CYQM 240541Z 2406/2506 21008KT P6SM SCT080 BKN120 
     FM240900 25008KT P6SM SCT020 BKN080 
     TEMPO 2409/2412 BKN020 
     FM241200 29008KT P6SM SCT020 BKN140 
     FM241500 27010KT P6SM FEW030 BKN140 
     FM242100 27010KT P6SM FEW120 
     BECMG 2501/2503 34009KT 
     BECMG 2504/2506 01006KT RMK NXT FCST BY 241200Z
       
TAF CYQQ 240539Z 2406/2506 15005KT P6SM FEW015 SCT040 BKN090 
     TEMPO 2406/2407 P6SM -SHRA 
     FM240700 15005KT P6SM SCT012 OVC040 
     TEMPO 2407/2416 P6SM -SHRA BKN012 
     FM241600 04005KT P6SM SCT015 
     TEMPO 2416/2419 BKN015 
     FM241900 VRB03KT P6SM FEW025 SCT050 RMK NXT FCST BY 241200Z
       
TAF AMD CYQR 241109Z 2411/2506 10015G25KT 1SM -SN SCT006 OVC012 
     BECMG 2411/2413 6SM -SN SCT012 OVC025 
     FM241300 10015KT P6SM SCT012 OVC025 
     TEMPO 2413/2501 4SM -SN BKN012 OVC025 
     FM250100 08012KT P6SM BKN040 RMK NXT FCST BY 241200Z
       
TAF AMD CYQT 241048Z 2410/2420 09010KT 2SM -SN BKN007 
     TEMPO 2410/2412 6SM -SN BKN025 
     PROB30 2410/2412 1SM -SN BKN006 
     FM241200 09012KT 6SM -SN BKN030 
     TEMPO 2412/2420 3SM -SN BKN020 RMK NXT FCST BY 241400Z
       
TAF CYQU 240638Z 2407/2419 VRB03KT P6SM -SN SCT012 OVC080 
     TEMPO 2407/2419 4SM -SN OVC012 
     PROB30 2407/2415 2SM -SHSN RMK NXT FCST BY 241300Z
       
TAF AMD CYQW 240813Z 2408/2418 13012KT P6SM SCT006 OVC025 
     TEMPO 2408/2416 4SM -SN BR OVC006 
     FM241600 11015KT 6SM -SN OVC015 RMK FCST BASED ON AUTO OBS. NXT FCST BY 241200Z
       
TAF AMD CYQX 241014Z 2410/2506 25010KT P6SM BKN005 
     TEMPO 2410/2412 SCT005 
     FM241200 22010KT P6SM FEW015 SCT160 
     FM241600 23015KT P6SM BKN020 
     FM242000 24012KT P6SM SCT025 
     FM250000 29012KT P6SM FEW030 RMK NXT FCST BY 241200Z
       
TAF CYQY 240541Z 2406/2418 24008KT P6SM FEW020 
     TEMPO 2406/2412 BKN020 
     FM241200 24012KT P6SM BKN020 BKN080 
     BECMG 2414/2416 30012KT RMK NXT FCST BY 241200Z
       
TAF CYRB 240538Z 2406/2506 VRB03KT P6SM FEW025 
     TEMPO 2406/2418 5SM IC BKN020 
     BECMG 2407/2409 01010KT 
     FM241800 35010KT P6SM SCT020 RMK NXT FCST BY 241200Z
       
TAF CYRL 241038Z 2411/2423 08008KT P6SM SKC 
     BECMG 2413/2415 09010G20KT BKN120 
     FM241700 08015G25KT P6SM -SN OVC025 
     FM241900 07015G25KT 6SM -SN OVC010 
     TEMPO 2419/2423 2SM -SN RMK NXT FCST BY 241400Z
       
TAF CYRQ 240738Z 2408/2420 34007KT P6SM SCT030 BKN100 
     FM241400 35008KT P6SM FEW100 RMK FCST BASED ON AUTO OBS. NXT FCST BY 241400Z
       
TAF CYRT 240538Z 2406/2418 35012KT P6SM FEW020 
     TEMPO 2406/2418 5SM IC BKN020 RMK NXT FCST BY 241200Z
       
TAF AMD CYSB 240745Z 2408/2420 07008KT P6SM BKN080 
     TEMPO 2409/2413 P6SM -SN 
     BECMG 2411/2413 08012KT RMK NXT FCST BY 241400Z
       
TAF CYSC 241038Z 2411/2423 32005KT P6SM FEW020 BKN050 
     TEMPO 2411/2415 BKN020 OVC050 
     FM241500 31006KT P6SM BKN100 RMK FCST BASED ON AUTO OBS. NXT FCST BY 241800Z
       
TAF CYSF 240538Z 2406/2418 08010KT P6SM SKC RMK FCST BASED ON AUTO OBS. NXT FCST BY 241200Z
       
TAF AMD CYSJ 241018Z 2410/2418 21008KT P6SM OVC003 
     BECMG 2410/2412 34005KT FEW005 
     FM241200 34008KT P6SM SCT020 
     TEMPO 2412/2415 BKN020 
     FM241500 34012KT P6SM BKN080 RMK NXT FCST BY 241200Z
       
TAF CYSM 240538Z 2406/2418 VRB03KT P6SM SKC RMK NXT FCST BY 241200Z
       
TAF CYTE 240638Z 2407/2419 01012KT P6SM BKN025 
     TEMPO 2407/2410 5SM -SN OVC020 
     BECMG 2408/2410 01020G30KT 
     FM241000 01020G30KT 5SM BLSN BKN060 
     TEMPO 2410/2419 2SM -SN BLSN BKN020 RMK FCST BASED ON AUTO OBS. NXT FCST BY 241300Z
       
TAF CYTH 240638Z 2407/2419 07005KT P6SM SKC 
     FM241500 09008KT P6SM BKN240 RMK NXT FCST BY 241300Z
       
TAF CYTL 240738Z 2408/2420 VRB03KT P6SM SKC 
     BECMG 2411/2413 09010KT RMK FCST BASED ON AUTO OBS. NXT FCST BY 241400Z
       
TAF CYTR 240531Z 2406/2506 VRB03KT P6SM SCT080 
     BECMG 2406/2408 04010KT 
     FM241400 05010KT P6SM FEW040 RMK NXT FCST BY 241200Z
       
TAF CYTS 240738Z 2408/2420 07006KT P6SM FEW170 
     BECMG 2410/2412 11005KT 
     FM241600 13010KT P6SM OVC140 RMK NXT FCST BY 241400Z
       
TAF AMD CYTZ 241019Z 2410/2508 07015G25KT P6SM SCT250 
     BECMG 2500/2502 07015KT RMK FCST BASED ON AUTO OBS. NXT FCST BY 241400Z
       
TAF CYUL 240838Z 2409/2506 03012KT P6SM FEW030 BKN100 
     FM241400 05012KT P6SM SCT120 RMK NXT FCST BY 241200Z
       
TAF CYUX 240638Z 2407/2419 34015KT 6SM -SN BKN030 BKN040 
     TEMPO 2407/2419 2SM -SN BR BKN020 OVC040 
     BECMG 2413/2415 33020KT RMK FCST BASED ON AUTO OBS. NXT FCST BY 241300Z
       
TAF CYUY 240538Z 2406/2418 05004KT P6SM SKC 
     BECMG 2408/2410 VRB03KT RMK NXT FCST BY 241200Z
       
TAF CYVC 240638Z 2407/2419 07010KT P6SM SCT060 BKN140 
     TEMPO 2407/2412 6SM -SN BKN060 OVC140 
     FM241200 07012KT P6SM SCT030 OVC060 
     TEMPO 2412/2415 4SM -SN OVC030 
     FM241500 09012KT 2SM -SN OVC020 
     TEMPO 2415/2419 6SM -SN OVC030 RMK NXT FCST BY 241300Z
       
TAF AMD CYVM 240943Z 2409/2419 05006KT 6SM -SN OVC030 
     TEMPO 2409/2415 2SM -SN FEW010 OVC020 
     FM241500 02010KT 3SM -SN OVC030 
     TEMPO 2415/2419 1SM -SN OVC012 RMK FCST BASED ON AUTO OBS. NXT FCST BY 241300Z
       
TAF CYVO 240538Z 2406/2418 01006KT P6SM SKC 
     BECMG 2408/2410 VRB03KT RMK FCST BASED ON AUTO OBS. NXT FCST BY 241200Z
       
TAF CYVP 240538Z 2406/2418 25015G25KT 21/2SM -SN BKN012 OVC030 
     TEMPO 2406/2410 6SM -SN SCT012 OVC030 
     PROB30 2406/2410 11/2SM -SN BLSN 
     FM241000 24015G25KT P6SM BKN025 OVC080 
     TEMPO 2410/2415 3SM -SHSN BLSN 
     FM241500 24015G25KT 6SM -SN BKN025 RMK NXT FCST BY 241200Z
       
TAF CYVQ 240538Z 2406/2418 12005KT P6SM SKC RMK NXT FCST BY 241200Z
       
TAF AMD CYVR 240937Z 2409/2512 14007KT P6SM -SHRA SCT005 SCT012 OVC030 
     TEMPO 2409/2411 5SM -SHRA BR BKN005 OVC012 
     FM241100 09010KT P6SM SCT020 BKN040 
     TEMPO 2411/2415 5SM -SHRA BR FEW007 BKN020 OVC040 
     FM241500 08010KT P6SM SCT020 BKN040 
     BECMG 2416/2418 29010KT 
     FM242000 28012KT P6SM FEW040 
     FM250500 09010KT P6SM FEW040 
     FM250800 09010KT P6SM SCT012 OVC050 RMK NXT FCST BY 241200Z
       
TAF CYVV 241038Z 2411/2423 06008KT P6SM SCT090 
     BECMG 2412/2414 09010G20KT 
     BECMG 2421/2423 10008KT RMK NXT FCST BY 241400Z
       
TAF CYWA 240530Z 2406/2418 VRB03KT P6SM BKN100 
     BECMG 2413/2415 07008KT SCT050 RMK FCST BASED ON AUTO OBS. NXT FCST BY 241200Z
       
TAF CYWG 240538Z 2406/2506 07010KT P6SM SKC 
     BECMG 2408/2410 SCT120 BKN240 
     FM241100 07015G25KT P6SM BKN070 OVC120 
     BECMG 2413/2415 2SM -SN OVC020 
     FM241500 07018KT 3SM -SN OVC025 
     TEMPO 2415/2418 1SM -SN OVC008 
     FM241800 07018KT P6SM -SN SCT012 OVC025 
     TEMPO 2418/2506 2SM -SN BKN012 OVC025 RMK NXT FCST BY 241200Z
       
TAF AMD CYWK 240805Z 2408/2420 28015G25KT P6SM -SN BKN025 
     TEMPO 2408/2410 11/2SM -SN OVC020 
     FM241000 28015G25KT P6SM -SN BKN025 
     TEMPO 2410/2414 21/2SM -SN OVC020 
     FM241400 27020G30KT P6SM BKN025 
     TEMPO 2414/2420 4SM -SN BKN020 RMK FCST BASED ON AUTO OBS. NXT FCST BY 241400Z
       
TAF CYWL 240642Z 2407/2419 33005KT P6SM FEW040 SCT100 
     TEMPO 2407/2419 BKN040 
     PROB30 2411/2416 1/2SM FG BKN005 RMK NXT FCST BY 241300Z
       
TAF CYXC 240638Z 2407/2419 13005KT P6SM SCT040 OVC070 
     TEMPO 2407/2416 5SM -SHRA BR FEW020 BKN040 OVC070 
     FM241600 14005KT P6SM BKN050 
     TEMPO 2416/2419 P6SM -SHRA RMK NXT FCST BY 241300Z
       
TAF AMD CYXE 240813Z 2408/2506 12012KT P6SM SCT008 OVC030 
     TEMPO 2408/2416 3SM -SN BR BKN008 OVC030 
     FM241600 12015G25KT P6SM SCT012 OVC025 
     TEMPO 2416/2502 4SM -SN BKN012 OVC025 
     FM250200 10010KT P6SM BKN030 
     TEMPO 2502/2506 5SM -SN RMK NXT FCST BY 241200Z
       
TAF AMD CYXH 241020Z 2410/2418 34008KT P6SM SCT008 OVC030 
     TEMPO 2410/2416 5SM -SHRA BR BKN008 OVC015 
     FM241600 35010KT P6SM SCT012 OVC040 
     TEMPO 2416/2418 P6SM -SHRA BKN012 OVC040 RMK FCST BASED ON AUTO OBS. NXT FCST BY 241200Z
       
TAF AMD CYXJ 240918Z 2409/2419 03005KT P6SM -SN SCT008 OVC025 
     TEMPO 2409/2419 BKN008 OVC020 RMK NXT FCST BY 241300Z
       
TAF CYXL 240738Z 2408/2420 09007KT P6SM SCT130 BKN230 
     FM241200 09010G20KT P6SM BKN110 OVC160 RMK NXT FCST BY 241400Z
       
TAF CYXS 240642Z 2407/2419 VRB03KT P6SM BKN050 
     TEMPO 2407/2419 SCT040 
     PROB30 2409/2417 1/2SM FG BKN003 RMK FCST BASED ON AUTO OBS. NXT FCST BY 241300Z
       
TAF CYXT 240642Z 2407/2419 17008KT P6SM SCT040 BKN070 
     TEMPO 2407/2419 P6SM -SHRA FEW020 BKN030 
     BECMG 2415/2417 33008KT RMK NXT FCST BY 241300Z
       
TAF CYXU 240538Z 2406/2506 VRB03KT P6SM SKC 
     BECMG 2410/2412 08012KT 
     FM241500 09010G20KT P6SM SKC 
     FM250000 09015KT P6SM BKN250 RMK NXT FCST BY 241200Z
       
TAF CYXX 240538Z 2406/2506 17006KT 5SM -SHRA BR FEW007 BKN020 OVC030 
     TEMPO 2406/2409 P6SM -SHRA SCT020 OVC030 
     FM240900 36006KT P6SM SCT020 BKN030 
     TEMPO 2409/2415 5SM -SHRA BR BKN020 OVC030 
     FM241500 36006KT P6SM SCT020 BKN030 
     BECMG 2419/2421 24010KT 
     FM250100 18006KT P6SM SCT030 RMK NXT FCST BY 241200Z
       
TAF CYXY 240538Z 2406/2418 18007KT P6SM FEW080 SCT220 RMK NXT FCST BY 241200Z
       
TAF AMD CYYB 240745Z 2408/2420 07008KT P6SM OVC090 
     TEMPO 2410/2414 P6SM -SN 
     BECMG 2412/2414 08012KT RMK FCST BASED ON AUTO OBS. NXT FCST BY 241400Z
       
TAF AMD CYYC 241019Z 2410/2506 06005KT 3/4SM -SHRASN BR OVC003 
     TEMPO 2410/2415 11/2SM BR OVC006 
     FM241500 05008KT 2SM BR OVC006 
     TEMPO 2415/2418 6SM BR OVC010 
     FM241800 05008KT P6SM OVC012 
     FM242000 05008KT P6SM BKN025 
     FM250200 03012KT P6SM -SHRA BKN012 OVC025 RMK NXT FCST BY 241200Z
       
TAF CYYE 240642Z 2407/2419 06007KT P6SM FEW040 BKN100 
     BECMG 2416/2418 13005KT RMK NXT FCST BY 241300Z
       
TAF CYYF 240638Z 2407/2419 VRB03KT P6SM SCT030 OVC050 
     TEMPO 2407/2416 P6SM -SHRA SCT020 OVC030 
     FM241600 36006KT P6SM BKN060 
     TEMPO 2416/2419 P6SM -SHRA RMK NXT FCST BY 241300Z
       
TAF CYYG 240541Z 2406/2418 22010KT P6SM FEW020 BKN080 BKN140 
     TEMPO 2406/2414 BKN020 
     BECMG 2410/2412 31010KT 
     FM241400 32010KT P6SM SCT140 RMK NXT FCST BY 241200Z
       
TAF CYYH 240538Z 2406/2418 30006KT P6SM SCT020 BKN070 
     TEMPO 2406/2418 4SM -SN BKN020 OVC060 RMK NXT FCST BY 241200Z
       
TAF AMD CYYJ 240934Z 2409/2506 VRB03KT P6SM SCT005 OVC030 
     TEMPO 2409/2417 5SM -SHRA BR BKN005 OVC020 
     FM241700 10008KT P6SM BKN040 
     FM242100 09006KT P6SM FEW040 RMK NXT FCST BY 241200Z
       
TAF CYYL 240638Z 2407/2419 07008KT P6SM SKC RMK FCST BASED ON AUTO OBS. NXT FCST BY 241300Z
       
TAF AMD CYYN 240953Z 2409/2418 12010KT 2SM -SN BR OVC002 
     TEMPO 2409/2416 6SM BR OVC008 
     FM241600 11015G25KT P6SM OVC012 
     TEMPO 2416/2418 2SM -SHRASN OVC006 RMK FCST BASED ON AUTO OBS. NXT FCST BY 241200Z
       
TAF CYYQ 240538Z 2406/2506 32008KT 6SM -SN BKN015 
     TEMPO 2406/2416 P6SM NSW SCT015 
     FM241600 31010KT P6SM SCT020 
     TEMPO 2416/2506 BKN020 RMK NXT FCST BY 241200Z
       
TAF CYYR 240531Z 2406/2506 VRB03KT P6SM FEW025 BKN080 
     TEMPO 2406/2408 P6SM -SN BKN025 BKN080 
     BECMG 2406/2408 24015G25KT 
     FM240800 24015G25KT P6SM -SN OVC025 
     TEMPO 2408/2412 4SM -SN OVC020 
     BECMG 2409/2411 26020G30KT 
     FM241600 26020G30KT P6SM BKN040 RMK NXT FCST BY 241200Z
       
TAF AMD CYYT 241109Z 2411/2506 27007KT P6SM BKN005 
     TEMPO 2411/2414 SCT005 
     FM241400 25010KT P6SM FEW015 
     BECMG 2415/2417 26015KT 
     FM242300 26012KT P6SM BKN012 
     FM250300 28012KT P6SM FEW030 RMK NXT FCST BY 241200Z
       
TAF CYYU 240738Z 2408/2420 15006KT P6SM SKC 
     BECMG 2410/2412 12005KT 
     FM241600 12008KT P6SM FEW040 BKN110 RMK NXT FCST BY 241400Z
       
TAF CYYY 240739Z 2408/2420 31018G28KT P6SM SCT040 
     TEMPO 2408/2420 BKN040 
     BECMG 2409/2411 28015KT RMK NXT FCST BY 241400Z
       
TAF CYYZ 240838Z 2409/2512 36008KT P6SM SCT250 
     BECMG 2411/2413 08008KT 
     FM241500 08012KT P6SM SKC 
     FM251100 09012KT P6SM SCT030 BKN070 RMK NXT FCST BY 241200Z
       
TAF CYZE 240939Z 2410/2422 07007KT P6SM SKC 
     FM241100 07007KT P6SM FEW030 BKN110 
     TEMPO 2411/2415 5SM -SNRA BKN030 OVC110 
     BECMG 2412/2414 08010KT 
     FM241500 08010G20KT P6SM BKN040 OVC150 
     FM241800 09010G20KT P6SM SCT040 RMK FCST BASED ON AUTO OBS. NXT FCST BY 241400Z
       
TAF CYZF 240538Z 2406/2506 09010KT P6SM SKC RMK NXT FCST BY 241200Z
       
TAF AMD CYZH 240934Z 2409/2419 VRB03KT 6SM -SN SCT015 OVC030 
     TEMPO 2409/2419 2SM -SHSN SCT008 OVC015 RMK FCST BASED ON AUTO OBS. NXT FCST BY 241300Z
       
TAF CYZP 240638Z 2407/2419 24007KT P6SM SCT020 OVC040 
     TEMPO 2407/2419 BKN020 OVC040 RMK FCST BASED ON AUTO OBS. NXT FCST BY 241300Z
       
TAF CYZR 240738Z 2408/2420 36007KT P6SM SKC 
     BECMG 2413/2415 10012KT RMK FCST BASED ON AUTO OBS. NXT FCST BY 241400Z
       
TAF CYZS 240638Z 2407/2419 35015KT P6SM FEW025 SCT200 
     BECMG 2411/2413 35020KT RMK NXT FCST BY 241300Z
       
TAF CYZT 240638Z 2407/2419 29005KT P6SM SCT030 
     TEMPO 2407/2417 SCT006 BKN020 
     PROB30 2407/2417 2SM BR BKN006 
     FM241700 VRB03KT P6SM FEW030 RMK NXT FCST BY 241300Z
       
TAF CYZV 240541Z 2406/2506 31012G22KT P6SM SCT020 BKN060 
     TEMPO 2406/2409 4SM -SN BKN020 
     FM240900 30012G22KT P6SM SCT020 
     TEMPO 2409/2416 BKN020 
     FM241600 28012G22KT P6SM BKN040 
     FM242100 28012G22KT P6SM SCT040 RMK NXT FCST BY 241200Z
       
TAF CYZX 240530Z 2406/2506 VRB03KT P6SM FEW250 
     PROB30 2407/2410 1SM BR SCT005 
     FM241000 24010KT P6SM BKN015 BKN060 
     TEMPO 2410/2413 SCT015 BKN060 
     FM241300 30010KT P6SM BKN020 BKN060 
     TEMPO 2413/2415 SCT020 BKN060 
     FM241500 32010KT P6SM SCT030 BKN060 
     FM242300 VRB03KT P6SM FEW240 
     BECMG 2504/2506 04010KT RMK NXT FCST BY 241200Z
       
TAF AMD CYEK 240937Z 2409/2418 33012KT P6SM FEW008 
     TEMPO 2409/2415 2SM -SN BR BKN008 
     FM241500 33012KT P6SM FEW015 
     TEMPO 2415/2418 4SM -SN OVC015 RMK FCST BASED ON AUTO OBS. NXT FCST BY 241200Z
       
TAF CYBG 240531Z 2406/2506 30012G22KT P6SM BKN040 
     FM240900 29010G20KT P6SM FEW040 
     BECMG 2422/2424 30005KT RMK NXT FCST BY 241200Z
       
TAF CYBC 240739Z 2408/2420 28012G22KT P6SM SCT040 
     TEMPO 2408/2414 OVC040 
     FM241500 28015G25KT P6SM SCT040 RMK FCST BASED ON AUTO OBS. NXT FCST BY 241400Z
       
TAF CYBK 240538Z 2406/2418 34015KT P6SM FEW015 BKN050 
     TEMPO 2406/2418 5SM IC BKN015 
     BECMG 2413/2415 32012KT RMK NXT FCST BY 241200Z
       
TAF CZBF 240838Z 2409/2421 28010G20KT P6SM SKC 
     TEMPO 2409/2414 BKN040 
     BECMG 2410/2412 29012G22KT 
     FM241500 28012KT P6SM FEW040 SCT180 RMK NXT FCST BY 241400Z
       
TAF CYBR 240538Z 2406/2418 12010KT P6SM SCT120 BKN220 
     BECMG 2407/2409 BKN070 OVC120 
     FM241200 06010KT 2SM -SN OVC025 
     TEMPO 2412/2418 5SM -SN SCT025 OVC040 RMK NXT FCST BY 241200Z
       
TAF CYDB 240538Z 2406/2418 11005KT P6SM FEW240 RMK FCST BASED ON AUTO OBS. NXT FCST BY 241200Z
       
TAF AMD CYYC 241019Z 2410/2506 06005KT 3/4SM -SHRASN BR OVC003 
     TEMPO 2410/2415 11/2SM BR OVC006 
     FM241500 05008KT 2SM BR OVC006 
     TEMPO 2415/2418 6SM BR OVC010 
     FM241800 05008KT P6SM OVC012 
     FM242000 05008KT P6SM BKN025 
     FM250200 03012KT P6SM -SHRA BKN012 OVC025 RMK NXT FCST BY 241200Z
       
TAF CYCB 240638Z 2407/2419 08005KT P6SM SCT100 
     BECMG 2414/2416 10010KT RMK NXT FCST BY 241300Z
       
TAF CYTE 240638Z 2407/2419 01012KT P6SM BKN025 
     TEMPO 2407/2410 5SM -SN OVC020 
     BECMG 2408/2410 01020G30KT 
     FM241000 01020G30KT 5SM BLSN BKN060 
     TEMPO 2410/2419 2SM -SN BLSN BKN020 RMK FCST BASED ON AUTO OBS. NXT FCST BY 241300Z
       
TAF CYYG 240541Z 2406/2418 22010KT P6SM FEW020 BKN080 BKN140 
     TEMPO 2406/2414 BKN020 
     BECMG 2410/2412 31010KT 
     FM241400 32010KT P6SM SCT140 RMK NXT FCST BY 241200Z
       
TAF CYYQ 240538Z 2406/2506 32008KT 6SM -SN BKN015 
     TEMPO 2406/2416 P6SM NSW SCT015 
     FM241600 31010KT P6SM SCT020 
     TEMPO 2416/2506 BKN020 RMK NXT FCST BY 241200Z
       
TAF CZUM 240738Z 2408/2420 28015G25KT P6SM -SN OVC025 
     TEMPO 2408/2410 2SM -SN BKN020 
     FM241000 28015G25KT P6SM BKN025 
     TEMPO 2410/2420 4SM -SN BKN020 RMK FCST BASED ON AUTO OBS. NXT FCST BY 241400Z
       
TAF CYCY 240638Z 2407/2419 27005KT P6SM SCT015 
     TEMPO 2407/2419 5SM -SN BKN015 RMK FCST BASED ON AUTO OBS. NXT FCST BY 241300Z
       
TAF CYOD 240531Z 2406/2506 08010KT 3SM -SN SCT012 OVC020 
     TEMPO 2406/2411 11/2SM -SN BR SCT008 OVC012 
     FM241100 09012KT P6SM SCT008 OVC015 
     TEMPO 2411/2416 4SM -SN BKN008 OVC015 
     FM241600 10012KT 6SM -SN BKN015 OVC025 RMK NXT FCST BY 241200Z
       
TAF CYQQ 240539Z 2406/2506 15005KT P6SM FEW015 SCT040 BKN090 
     TEMPO 2406/2407 P6SM -SHRA 
     FM240700 15005KT P6SM SCT012 OVC040 
     TEMPO 2407/2416 P6SM -SHRA BKN012 
     FM241600 04005KT P6SM SCT015 
     TEMPO 2416/2419 BKN015 
     FM241900 VRB03KT P6SM FEW025 SCT050 RMK NXT FCST BY 241200Z
       
TAF CYZS 240638Z 2407/2419 35015KT P6SM FEW025 SCT200 
     BECMG 2411/2413 35020KT RMK NXT FCST BY 241300Z
       
TAF CYXC 240638Z 2407/2419 13005KT P6SM SCT040 OVC070 
     TEMPO 2407/2416 5SM -SHRA BR FEW020 BKN040 OVC070 
     FM241600 14005KT P6SM BKN050 
     TEMPO 2416/2419 P6SM -SHRA RMK NXT FCST BY 241300Z
       
TAF CYDN 240538Z 2406/2418 13008KT P6SM SCT120 BKN240 
     BECMG 2408/2410 BKN080 
     FM241200 06010KT P6SM -SN OVC070 
     TEMPO 2412/2418 3SM -SN OVC030 
     BECMG 2414/2416 07015KT RMK FCST BASED ON AUTO OBS. NXT FCST BY 241200Z
       
TAF CYDF 240738Z 2408/2420 22006KT P6SM -SN BKN020 
     TEMPO 2408/2411 P6SM NSW BKN025 
     PROB30 2408/2411 2SM BR OVC004 
     FM241100 22012KT P6SM OVC020 
     TEMPO 2411/2415 P6SM -SN BKN008 OVC020 
     BECMG 2412/2414 24015G25KT 
     FM241500 24015G25KT P6SM BKN020 RMK NXT FCST BY 241400Z
       
TAF CYHD 240738Z 2408/2420 08010KT P6SM BKN210 
     FM241100 10010G20KT P6SM SCT020 OVC080 
     FM241300 10010G20KT 6SM -SN OVC020 
     TEMPO 2413/2420 3SM -SN RMK FCST BASED ON AUTO OBS. NXT FCST BY 241400Z
       
TAF AMD CYEG 241049Z 2410/2506 VRB03KT 3/8SM -SN FG OVC002 
     TEMPO 2410/2416 11/2SM -SN BR SCT002 OVC030 
     FM241600 VRB03KT 1SM -SN BR OVC006 
     TEMPO 2416/2420 4SM -SN SCT006 OVC015 
     FM242000 02005KT 5SM -SN BR SCT006 OVC015 
     FM242300 02005KT 6SM -SN BKN015 OVC030 
     FM250400 06005KT P6SM BKN008 OVC015 RMK NXT FCST BY 241200Z
       
TAF AMD CZVL 240933Z 2409/2418 VRB03KT 21/2SM -SN BR OVC004 
     TEMPO 2409/2416 P6SM -SN SCT004 OVC012 
     FM241600 VRB03KT 2SM -SN BR OVC006 
     TEMPO 2416/2418 5SM -SN SCT006 OVC015 RMK FCST BASED ON AUTO OBS. NXT FCST BY 241200Z
       
TAF CYMM 240638Z 2407/2419 VRB03KT P6SM FEW040 BKN080 OVC160 
     FM241000 09005KT P6SM SCT020 OVC040 
     TEMPO 2410/2413 21/2SM -SN SCT008 OVC020 
     FM241300 09008KT 6SM -SN OVC015 
     TEMPO 2413/2419 2SM -SN OVC008 RMK FCST BASED ON AUTO OBS. NXT FCST BY 241300Z
       
TAF CYYE 240642Z 2407/2419 06007KT P6SM FEW040 BKN100 
     BECMG 2416/2418 13005KT RMK NXT FCST BY 241300Z
       
TAF CYFS 240538Z 2406/2418 12005KT P6SM BKN100 RMK NXT FCST BY 241200Z
       
TAF CYSM 240538Z 2406/2418 VRB03KT P6SM SKC RMK NXT FCST BY 241200Z
       
TAF AMD CYXJ 240918Z 2409/2419 03005KT P6SM -SN SCT008 OVC025 
     TEMPO 2409/2419 BKN008 OVC020 RMK NXT FCST BY 241300Z
       
TAF CYFC 240541Z 2406/2418 20007KT P6SM SCT080 BKN150 
     BECMG 2407/2409 30008KT 
     FM240900 30008KT P6SM SCT030 BKN080 
     TEMPO 2409/2412 BKN020 
     FM241200 30008KT P6SM SCT080 BKN120 RMK FCST BASED ON AUTO OBS. NXT FCST BY 241200Z
       
TAF AMD CYQX 241014Z 2410/2506 25010KT P6SM BKN005 
     TEMPO 2410/2412 SCT005 
     FM241200 22010KT P6SM FEW015 SCT160 
     FM241600 23015KT P6SM BKN020 
     FM242000 24012KT P6SM SCT025 
     FM250000 29012KT P6SM FEW030 RMK NXT FCST BY 241200Z
       
TAF CYGP 240739Z 2408/2420 30005KT P6SM SCT020 
     TEMPO 2408/2412 BKN020 
     BECMG 2408/2410 29012KT 
     FM241200 28012G22KT P6SM SCT030 
     TEMPO 2412/2420 BKN030 RMK NXT FCST BY 241400Z
       
TAF CYGQ 240738Z 2408/2420 08004KT P6SM SKC 
     FM241200 08010KT P6SM OVC100 
     FM241800 10010G20KT 21/2SM -SN OVC030 RMK NXT FCST BY 241400Z
       
TAF AMD CYHK 240926Z 2409/2418 30012KT 6SM -SN BKN010 BKN100 
     TEMPO 2409/2412 1SM -SN BR OVC004 
     FM241200 29012KT P6SM SCT010 
     TEMPO 2412/2418 3SM -SN BR OVC010 RMK FCST BASED ON AUTO OBS. NXT FCST BY 241200Z
       
TAF CYYR 240531Z 2406/2506 VRB03KT P6SM FEW025 BKN080 
     TEMPO 2406/2408 P6SM -SN BKN025 BKN080 
     BECMG 2406/2408 24015G25KT 
     FM240800 24015G25KT P6SM -SN OVC025 
     TEMPO 2408/2412 4SM -SN OVC020 
     BECMG 2409/2411 26020G30KT 
     FM241600 26020G30KT P6SM BKN040 RMK NXT FCST BY 241200Z
       
TAF CYZE 240939Z 2410/2422 07007KT P6SM SKC 
     FM241100 07007KT P6SM FEW030 BKN110 
     TEMPO 2411/2415 5SM -SNRA BKN030 OVC110 
     BECMG 2412/2414 08010KT 
     FM241500 08010G20KT P6SM BKN040 OVC150 
     FM241800 09010G20KT P6SM SCT040 RMK FCST BASED ON AUTO OBS. NXT FCST BY 241400Z
       
TAF CYQU 240638Z 2407/2419 VRB03KT P6SM -SN SCT012 OVC080 
     TEMPO 2407/2419 4SM -SN OVC012 
     PROB30 2407/2415 2SM -SHSN RMK NXT FCST BY 241300Z
       
TAF CYZX 240530Z 2406/2506 VRB03KT P6SM FEW250 
     PROB30 2407/2410 1SM BR SCT005 
     FM241000 24010KT P6SM BKN015 BKN060 
     TEMPO 2410/2413 SCT015 BKN060 
     FM241300 30010KT P6SM BKN020 BKN060 
     TEMPO 2413/2415 SCT020 BKN060 
     FM241500 32010KT P6SM SCT030 BKN060 
     FM242300 VRB03KT P6SM FEW240 
     BECMG 2504/2506 04010KT RMK NXT FCST BY 241200Z
       
TAF CYHZ 240838Z 2409/2506 21008KT P6SM SKC 
     PROB30 2409/2410 BKN005 
     FM241200 25008KT P6SM SCT012 
     BECMG 2412/2414 31008KT 
     FM241500 31008KT P6SM BKN020 
     FM241700 30012KT P6SM SCT040 BKN080 
     FM242300 32008KT P6SM SCT080 
     FM250200 33008KT P6SM SKC 
     BECMG 2504/2506 03008KT RMK NXT FCST BY 241200Z
       
TAF CYUX 240638Z 2407/2419 34015KT 6SM -SN BKN030 BKN040 
     TEMPO 2407/2419 2SM -SN BR BKN020 OVC040 
     BECMG 2413/2415 33020KT RMK FCST BASED ON AUTO OBS. NXT FCST BY 241300Z
       
TAF CYHM 240538Z 2406/2506 09005KT P6SM FEW250 
     BECMG 2411/2413 05015KT 
     FM241900 05015G25KT P6SM BKN250 
     BECMG 2502/2504 05012KT RMK NXT FCST BY 241200Z
       
TAF CYGV 240739Z 2408/2420 23004KT P6SM OVC025 
     TEMPO 2408/2409 4SM -RASN BR OVC020 
     BECMG 2408/2409 30012G22KT 
     FM240900 30015G25KT P6SM SCT030 
     TEMPO 2409/2415 BKN020 
     FM241500 28015G25KT P6SM BKN040 
     FM241800 26018G28KT 5SM -SHSN BKN040 RMK FCST BASED ON AUTO OBS. NXT FCST BY 241400Z
       
TAF CYHY 240538Z 2406/2418 08010KT P6SM SCT060 RMK NXT FCST BY 241200Z
       
TAF CYOJ 240638Z 2407/2419 12005KT P6SM SKC 
     BECMG 2409/2411 BKN040 RMK FCST BASED ON AUTO OBS. NXT FCST BY 241300Z
       
TAF CYGR 241038Z 2411/2423 22010G20KT P6SM FEW020 BKN070 BKN100 
     TEMPO 2411/2421 BKN020 
     BECMG 2411/2413 28012KT 
     FM242100 28012KT P6SM FEW020 RMK NXT FCST BY 241400Z
       
TAF CYEV 240638Z 2407/2419 VRB03KT P6SM SKC 
     FM241300 29005KT P6SM BKN030 
     PROB30 2413/2419 1/2SM -SN FZFG BKN002 RMK NXT FCST BY 241300Z
       
TAF CYFB 240538Z 2406/2506 VRB03KT P6SM OVC025 
     TEMPO 2406/2412 4SM -SN OVC020 
     BECMG 2410/2412 33016KT 
     FM241200 33016KT P6SM SCT015 BKN050 
     TEMPO 2412/2415 2SM -SN BLSN BKN010 OVC040 
     FM241500 34020G30KT 5SM -SN OVC025 
     TEMPO 2415/2418 1SM -SN BLSN OVC015 
     FM241800 33025G35KT 1/2SM SN BLSN VV008 
     FM250000 33025G35KT 3/4SM -SN BLSN OVC015 RMK NXT FCST BY 241200Z
       
TAF CYKA 240638Z 2407/2419 VRB03KT P6SM SCT120 
     FM241100 VRB03KT P6SM BKN050 BKN120 
     TEMPO 2411/2419 P6SM -SHRA 
     BECMG 2415/2417 28010KT RMK NXT FCST BY 241300Z
       
TAF CYYU 240738Z 2408/2420 15006KT P6SM SKC 
     BECMG 2410/2412 12005KT 
     FM241600 12008KT P6SM FEW040 BKN110 RMK NXT FCST BY 241400Z
       
TAF CYLW 240638Z 2407/2419 VRB03KT P6SM BKN080 
     TEMPO 2407/2408 P6SM -SHRA 
     FM240800 VRB03KT P6SM SCT030 BKN060 
     TEMPO 2408/2416 P6SM -SHRA FEW020 BKN030 OVC060 
     FM241600 VRB03KT P6SM BKN060 
     TEMPO 2416/2419 P6SM -SHRA RMK FCST BASED ON AUTO OBS. NXT FCST BY 241300Z
       
TAF CYQK 240738Z 2408/2420 09010KT P6SM BKN210 
     FM240900 09012KT P6SM BKN090 OVC160 
     FM241100 09012G22KT P6SM -SN SCT015 OVC030 
     FM241300 09012G22KT 2SM -SN OVC010 
     TEMPO 2413/2420 6SM -SN 
     PROB30 2416/2419 21/2SM -PL BR OVC009 RMK NXT FCST BY 241400Z
       
TAF CYKF 240738Z 2408/2420 VRB03KT P6SM SKC 
     BECMG 2410/2412 08010G20KT RMK FCST BASED ON AUTO OBS. NXT FCST BY 241400Z
       
TAF AMD CYCO 241108Z 2411/2419 VRB03KT 2SM IC BR SCT200 
     TEMPO 2411/2417 P6SM NSW 
     FM241700 12005KT P6SM IC SCT200 RMK NXT FCST BY 241300Z
       
TAF CYVP 240538Z 2406/2418 25015G25KT 21/2SM -SN BKN012 OVC030 
     TEMPO 2406/2410 6SM -SN SCT012 OVC030 
     PROB30 2406/2410 11/2SM -SN BLSN 
     FM241000 24015G25KT P6SM BKN025 OVC080 
     TEMPO 2410/2415 3SM -SHSN BLSN 
     FM241500 24015G25KT 6SM -SN BKN025 RMK NXT FCST BY 241200Z
       
TAF CYGL 240538Z 2406/2506 28018G28KT 6SM -SN SCT020 BKN040 
     TEMPO 2406/2420 3SM -SN BLSN OVC020 
     PROB30 2406/2412 11/2SM -SN BLSN 
     FM242000 28012G22KT P6SM BKN025 
     FM250000 29012KT P6SM FEW025 RMK NXT FCST BY 241200Z
       
TAF CYVC 240638Z 2407/2419 07010KT P6SM SCT060 BKN140 
     TEMPO 2407/2412 6SM -SN BKN060 OVC140 
     FM241200 07012KT P6SM SCT030 OVC060 
     TEMPO 2412/2415 4SM -SN OVC030 
     FM241500 09012KT 2SM -SN OVC020 
     TEMPO 2415/2419 6SM -SN OVC030 RMK NXT FCST BY 241300Z
       
TAF AMD CYQL 240949Z 2409/2418 VRB03KT P6SM SCT005 OVC100 
     TEMPO 2409/2414 4SM -SHRA BR OVC005 
     FM241400 34008KT P6SM SCT008 BKN040 
     TEMPO 2414/2418 5SM -SHRA BR BKN008 OVC040 RMK FCST BASED ON AUTO OBS. NXT FCST BY 241200Z
       
TAF AMD CYLL 240622Z 2406/2418 10012KT 4SM BR OVC004 
     TEMPO 2406/2416 P6SM NSW SCT004 OVC012 
     FM241600 10012KT 6SM BR OVC008 RMK FCST BASED ON AUTO OBS. NXT FCST BY 241200Z
       
TAF CYXU 240538Z 2406/2506 VRB03KT P6SM SKC 
     BECMG 2410/2412 08012KT 
     FM241500 09010G20KT P6SM SKC 
     FM250000 09015KT P6SM BKN250 RMK NXT FCST BY 241200Z
       
TAF AMD CYBX 240807Z 2408/2420 23015G25KT 6SM BR OVC003 
     TEMPO 2408/2416 2SM -FZDZ -SN BR 
     PROB30 2408/2416 1/2SM FZFG VV002 
     FM241600 24020G30KT P6SM BKN030 
     FM241800 27020G30KT P6SM SCT030 RMK NXT FCST BY 241400Z
       
TAF CYYL 240638Z 2407/2419 07008KT P6SM SKC RMK FCST BASED ON AUTO OBS. NXT FCST BY 241300Z
       
TAF CYMA 240538Z 2406/2418 35007KT P6SM SKC RMK NXT FCST BY 241200Z
       
TAF AMD CYXH 241020Z 2410/2418 34008KT P6SM SCT008 OVC030 
     TEMPO 2410/2416 5SM -SHRA BR BKN008 OVC015 
     FM241600 35010KT P6SM SCT012 OVC040 
     TEMPO 2416/2418 P6SM -SHRA BKN012 OVC040 RMK FCST BASED ON AUTO OBS. NXT FCST BY 241200Z
       
TAF CYQM 240541Z 2406/2506 21008KT P6SM SCT080 BKN120 
     FM240900 25008KT P6SM SCT020 BKN080 
     TEMPO 2409/2412 BKN020 
     FM241200 29008KT P6SM SCT020 BKN140 
     FM241500 27010KT P6SM FEW030 BKN140 
     FM242100 27010KT P6SM FEW120 
     BECMG 2501/2503 34009KT 
     BECMG 2504/2506 01006KT RMK NXT FCST BY 241200Z
       
TAF CYYY 240739Z 2408/2420 31018G28KT P6SM SCT040 
     TEMPO 2408/2420 BKN040 
     BECMG 2409/2411 28015KT RMK NXT FCST BY 241400Z
       
TAF CYUL 240838Z 2409/2506 03012KT P6SM FEW030 BKN100 
     FM241400 05012KT P6SM SCT120 RMK NXT FCST BY 241200Z
       
TAF CYMX 240538Z 2406/2506 01006KT P6SM BKN080 
     FM241400 06008KT P6SM SCT120 RMK NXT FCST BY 241200Z
       
TAF CYHU 240538Z 2406/2506 02012KT P6SM FEW025 BKN090 
     FM241400 04010KT P6SM SCT120 RMK FCST BASED ON AUTO OBS. NXT FCST BY 241200Z
       
TAF AMD CYNA 241103Z 2411/2420 27022G34KT P6SM BKN020 
     TEMPO 2411/2415 SCT020 
     FM241500 29017G27KT P6SM BKN030 
     PROB30 2418/2420 2SM -SHSN RMK FCST BASED ON AUTO OBS. NXT FCST BY 241400Z
       
TAF CYVQ 240538Z 2406/2418 12005KT P6SM SKC RMK NXT FCST BY 241200Z
       
TAF AMD CYQW 240813Z 2408/2418 13012KT P6SM SCT006 OVC025 
     TEMPO 2408/2416 4SM -SN BR OVC006 
     FM241600 11015KT 6SM -SN OVC015 RMK FCST BASED ON AUTO OBS. NXT FCST BY 241200Z
       
TAF AMD CYYB 240745Z 2408/2420 07008KT P6SM OVC090 
     TEMPO 2410/2414 P6SM -SN 
     BECMG 2412/2414 08012KT RMK FCST BASED ON AUTO OBS. NXT FCST BY 241400Z
       
TAF CYOW 240838Z 2409/2506 36012KT P6SM BKN080 
     FM241200 03012KT P6SM SCT100 
     BECMG 2413/2415 05010KT 
     BECMG 2500/2502 08012KT RMK NXT FCST BY 241200Z
       
TAF CYPE 240638Z 2407/2419 06008KT P6SM -SN OVC015 
     TEMPO 2407/2419 P6SM NSW SCT015 OVC030 RMK NXT FCST BY 241300Z
       
TAF CYYF 240638Z 2407/2419 VRB03KT P6SM SCT030 OVC050 
     TEMPO 2407/2416 P6SM -SHRA SCT020 OVC030 
     FM241600 36006KT P6SM BKN060 
     TEMPO 2416/2419 P6SM -SHRA RMK NXT FCST BY 241300Z
       
TAF CYWA 240530Z 2406/2418 VRB03KT P6SM BKN100 
     BECMG 2413/2415 07008KT SCT050 RMK FCST BASED ON AUTO OBS. NXT FCST BY 241200Z
       
TAF CYPQ 240939Z 2410/2422 04007KT P6SM BKN210 
     FM241400 08010KT P6SM SKC RMK FCST BASED ON AUTO OBS. NXT FCST BY 241400Z
       
TAF CYIO 240638Z 2407/2419 16006KT P6SM SKC RMK FCST BASED ON AUTO OBS. NXT FCST BY 241300Z
       
TAF CYZT 240638Z 2407/2419 29005KT P6SM SCT030 
     TEMPO 2407/2417 SCT006 BKN020 
     PROB30 2407/2417 2SM BR BKN006 
     FM241700 VRB03KT P6SM FEW030 RMK NXT FCST BY 241300Z
       
TAF CYPA 240638Z 2407/2419 09012G22KT P6SM -SN SCT012 OVC025 
     TEMPO 2407/2416 2SM -SN BKN012 OVC030 
     FM241600 11015G25KT P6SM SCT020 BKN040 
     TEMPO 2416/2419 3SM -SN BKN020 OVC040 RMK NXT FCST BY 241300Z
       
TAF CYXS 240642Z 2407/2419 VRB03KT P6SM BKN050 
     TEMPO 2407/2419 SCT040 
     PROB30 2409/2417 1/2SM FG BKN003 RMK FCST BASED ON AUTO OBS. NXT FCST BY 241300Z
       
TAF AMD CYPR 240945Z 2409/2419 VRB03KT P6SM SCT020 
     TEMPO 2409/2414 BKN020 RMK FCST BASED ON AUTO OBS. NXT FCST BY 241300Z
       
TAF CYPX 232338Z 2400/2412 36025G35KT 1/4SM -SN BLSN VV008 
     TEMPO 2400/2412 2SM -SN OVC020 RMK FCST BASED ON AUTO OBS. NXT FCST BY 240600Z
       
TAF AMD CYVM 240943Z 2409/2419 05006KT 6SM -SN OVC030 
     TEMPO 2409/2415 2SM -SN FEW010 OVC020 
     FM241500 02010KT 3SM -SN OVC030 
     TEMPO 2415/2419 1SM -SN OVC012 RMK FCST BASED ON AUTO OBS. NXT FCST BY 241300Z
       
TAF CYQB 240538Z 2406/2506 26008KT P6SM FEW080 
     BECMG 2407/2409 32010KT 
     FM241500 27010KT P6SM FEW150 
     BECMG 2503/2505 07010KT RMK NXT FCST BY 241200Z
       
TAF CYRT 240538Z 2406/2418 35012KT P6SM FEW020 
     TEMPO 2406/2418 5SM IC BKN020 RMK NXT FCST BY 241200Z
       
TAF AMD CYQF 240914Z 2409/2418 VRB03KT P6SM SCT004 OVC008 
     TEMPO 2409/2416 11/2SM BR OVC004 
     PROB40 2411/2416 1/2SM FZFG VV002 
     FM241600 36005KT 4SM BR BKN008 OVC020 RMK NXT FCST BY 241200Z
       
TAF CYRL 241038Z 2411/2423 08008KT P6SM SKC 
     BECMG 2413/2415 09010G20KT BKN120 
     FM241700 08015G25KT P6SM -SN OVC025 
     FM241900 07015G25KT 6SM -SN OVC010 
     TEMPO 2419/2423 2SM -SN RMK NXT FCST BY 241400Z
       
TAF AMD CYQR 241109Z 2411/2506 10015G25KT 1SM -SN SCT006 OVC012 
     BECMG 2411/2413 6SM -SN SCT012 OVC025 
     FM241300 10015KT P6SM SCT012 OVC025 
     TEMPO 2413/2501 4SM -SN BKN012 OVC025 
     FM250100 08012KT P6SM BKN040 RMK NXT FCST BY 241200Z
       
TAF CYRB 240538Z 2406/2506 VRB03KT P6SM FEW025 
     TEMPO 2406/2418 5SM IC BKN020 
     BECMG 2407/2409 01010KT 
     FM241800 35010KT P6SM SCT020 RMK NXT FCST BY 241200Z
       
TAF CYUY 240538Z 2406/2418 05004KT P6SM SKC 
     BECMG 2408/2410 VRB03KT RMK NXT FCST BY 241200Z
       
TAF AMD CYSJ 241018Z 2410/2418 21008KT P6SM OVC003 
     BECMG 2410/2412 34005KT FEW005 
     FM241200 34008KT P6SM SCT020 
     TEMPO 2412/2415 BKN020 
     FM241500 34012KT P6SM BKN080 RMK NXT FCST BY 241200Z
       
TAF CYZP 240638Z 2407/2419 24007KT P6SM SCT020 OVC040 
     TEMPO 2407/2419 BKN020 OVC040 RMK FCST BASED ON AUTO OBS. NXT FCST BY 241300Z
       
TAF CYZR 240738Z 2408/2420 36007KT P6SM SKC 
     BECMG 2413/2415 10012KT RMK FCST BASED ON AUTO OBS. NXT FCST BY 241400Z
       
TAF AMD CYXE 240813Z 2408/2506 12012KT P6SM SCT008 OVC030 
     TEMPO 2408/2416 3SM -SN BR BKN008 OVC030 
     FM241600 12015G25KT P6SM SCT012 OVC025 
     TEMPO 2416/2502 4SM -SN BKN012 OVC025 
     FM250200 10010KT P6SM BKN030 
     TEMPO 2502/2506 5SM -SN RMK NXT FCST BY 241200Z
       
TAF CYAM 240738Z 2408/2420 VRB03KT P6SM OVC050 
     TEMPO 2408/2413 P6SM -SHSNRA 
     BECMG 2410/2412 11010G20KT 
     FM241300 11015G25KT P6SM OVC060 
     FM241900 11015G25KT P6SM FEW030 RMK NXT FCST BY 241400Z
       
TAF CYKL 240139Z 2402/2414 28015G25KT 11/2SM -SN OVC015 
     TEMPO 2402/2403 6SM -SN OVC025 
     FM240300 28015G25KT P6SM -SN OVC025 
     TEMPO 2403/2406 21/2SM -SN OVC020 
     FM240600 28015G25KT P6SM BKN025 
     TEMPO 2406/2414 4SM -SN BKN020 RMK FCST BASED ON AUTO OBS. NXT FCST BY 240800Z
       
TAF CYZV 240541Z 2406/2506 31012G22KT P6SM SCT020 BKN060 
     TEMPO 2406/2409 4SM -SN BKN020 
     FM240900 30012G22KT P6SM SCT020 
     TEMPO 2409/2416 BKN020 
     FM241600 28012G22KT P6SM BKN040 
     FM242100 28012G22KT P6SM SCT040 RMK NXT FCST BY 241200Z
       
TAF CYSC 241038Z 2411/2423 32005KT P6SM FEW020 BKN050 
     TEMPO 2411/2415 BKN020 OVC050 
     FM241500 31006KT P6SM BKN100 RMK FCST BASED ON AUTO OBS. NXT FCST BY 241800Z
       
TAF CYXL 240738Z 2408/2420 09007KT P6SM SCT130 BKN230 
     FM241200 09010G20KT P6SM BKN110 OVC160 RMK NXT FCST BY 241400Z
       
TAF AMD CYZH 240934Z 2409/2419 VRB03KT 6SM -SN SCT015 OVC030 
     TEMPO 2409/2419 2SM -SHSN SCT008 OVC015 RMK FCST BASED ON AUTO OBS. NXT FCST BY 241300Z
       
TAF AMD CYAY 241037Z 2410/2420 22012G22KT P6SM SCT007 BKN030 
     TEMPO 2410/2412 4SM BR OVC007 
     FM241200 22015G25KT P6SM -SN SCT007 OVC030 
     TEMPO 2412/2414 4SM -SN BR OVC007 
     BECMG 2412/2414 21020G30KT 
     FM241400 21020G30KT P6SM BKN012 
     TEMPO 2414/2418 BKN025 
     FM241800 25020G30KT P6SM SCT030 RMK FCST BASED ON AUTO OBS. NXT FCST BY 241400Z
       
TAF AMD CYYT 241109Z 2411/2506 27007KT P6SM BKN005 
     TEMPO 2411/2414 SCT005 
     FM241400 25010KT P6SM FEW015 
     BECMG 2415/2417 26015KT 
     FM242300 26012KT P6SM BKN012 
     FM250300 28012KT P6SM FEW030 RMK NXT FCST BY 241200Z
       
TAF CYJT 240538Z 2406/2506 24010KT P6SM OVC015 
     TEMPO 2406/2410 5SM BR BKN006 OVC015 
     FM241000 23010KT P6SM SCT006 OVC012 
     TEMPO 2410/2414 5SM -SN -DZ BR OVC006 
     PROB30 2410/2414 2SM -FZDZ BR OVC005 
     FM241400 26012G22KT P6SM BKN030 
     FM241900 28015G25KT P6SM SCT030 
     FM250000 28015G25KT P6SM -SHSN BKN030 RMK NXT FCST BY 241200Z
       
TAF AMD CYSB 240745Z 2408/2420 07008KT P6SM BKN080 
     TEMPO 2409/2413 P6SM -SN 
     BECMG 2411/2413 08012KT RMK NXT FCST BY 241400Z
       
TAF AMD CYYN 240953Z 2409/2418 12010KT 2SM -SN BR OVC002 
     TEMPO 2409/2416 6SM BR OVC008 
     FM241600 11015G25KT P6SM OVC012 
     TEMPO 2416/2418 2SM -SHRASN OVC006 RMK FCST BASED ON AUTO OBS. NXT FCST BY 241200Z
       
TAF CYQY 240541Z 2406/2418 24008KT P6SM FEW020 
     TEMPO 2406/2412 BKN020 
     FM241200 24012KT P6SM BKN020 BKN080 
     BECMG 2414/2416 30012KT RMK NXT FCST BY 241200Z
       
TAF CYYH 240538Z 2406/2418 30006KT P6SM SCT020 BKN070 
     TEMPO 2406/2418 4SM -SN BKN020 OVC060 RMK NXT FCST BY 241200Z
       
TAF CYXT 240642Z 2407/2419 17008KT P6SM SCT040 BKN070 
     TEMPO 2407/2419 P6SM -SHRA FEW020 BKN030 
     BECMG 2415/2417 33008KT RMK NXT FCST BY 241300Z
       
TAF CYQD 240638Z 2407/2419 11008KT P6SM BKN220 
     FM240900 10010KT P6SM SCT050 BKN120 RMK NXT FCST BY 241300Z
       
TAF CYTH 240638Z 2407/2419 07005KT P6SM SKC 
     FM241500 09008KT P6SM BKN240 RMK NXT FCST BY 241300Z
       
TAF AMD CYQT 241048Z 2410/2420 09010KT 2SM -SN BKN007 
     TEMPO 2410/2412 6SM -SN BKN025 
     PROB30 2410/2412 1SM -SN BKN006 
     FM241200 09012KT 6SM -SN BKN030 
     TEMPO 2412/2420 3SM -SN BKN020 RMK NXT FCST BY 241400Z
       
TAF CYTS 240738Z 2408/2420 07006KT P6SM FEW170 
     BECMG 2410/2412 11005KT 
     FM241600 13010KT P6SM OVC140 RMK NXT FCST BY 241400Z
       
TAF CYKZ 240538Z 2406/2418 35006KT P6SM FEW090 SCT250 
     BECMG 2411/2413 08007KT 
     FM241500 08010KT P6SM SKC RMK NXT FCST BY 241200Z
       
TAF AMD CYTZ 241019Z 2410/2508 07015G25KT P6SM SCT250 
     BECMG 2500/2502 07015KT RMK FCST BASED ON AUTO OBS. NXT FCST BY 241400Z
       
TAF CYYZ 240838Z 2409/2512 36008KT P6SM SCT250 
     BECMG 2411/2413 08008KT 
     FM241500 08012KT P6SM SKC 
     FM251100 09012KT P6SM SCT030 BKN070 RMK NXT FCST BY 241200Z
       
TAF CYTR 240531Z 2406/2506 VRB03KT P6SM SCT080 
     BECMG 2406/2408 04010KT 
     FM241400 05010KT P6SM FEW040 RMK NXT FCST BY 241200Z
       
TAF CYRQ 240738Z 2408/2420 34007KT P6SM SCT030 BKN100 
     FM241400 35008KT P6SM FEW100 RMK FCST BASED ON AUTO OBS. NXT FCST BY 241400Z
       
TAF CYVO 240538Z 2406/2418 01006KT P6SM SKC 
     BECMG 2408/2410 VRB03KT RMK FCST BASED ON AUTO OBS. NXT FCST BY 241200Z
       
TAF AMD CYVR 240937Z 2409/2512 14007KT P6SM -SHRA SCT005 SCT012 OVC030 
     TEMPO 2409/2411 5SM -SHRA BR BKN005 OVC012 
     FM241100 09010KT P6SM SCT020 BKN040 
     TEMPO 2411/2415 5SM -SHRA BR FEW007 BKN020 OVC040 
     FM241500 08010KT P6SM SCT020 BKN040 
     BECMG 2416/2418 29010KT 
     FM242000 28012KT P6SM FEW040 
     FM250500 09010KT P6SM FEW040 
     FM250800 09010KT P6SM SCT012 OVC050 RMK NXT FCST BY 241200Z
       
TAF AMD CYYJ 240934Z 2409/2506 VRB03KT P6SM SCT005 OVC030 
     TEMPO 2409/2417 5SM -SHRA BR BKN005 OVC020 
     FM241700 10008KT P6SM BKN040 
     FM242100 09006KT P6SM FEW040 RMK NXT FCST BY 241200Z
       
TAF AMD CYWK 240805Z 2408/2420 28015G25KT P6SM -SN BKN025 
     TEMPO 2408/2410 11/2SM -SN OVC020 
     FM241000 28015G25KT P6SM -SN BKN025 
     TEMPO 2410/2414 21/2SM -SN OVC020 
     FM241400 27020G30KT P6SM BKN025 
     TEMPO 2414/2420 4SM -SN BKN020 RMK FCST BASED ON AUTO OBS. NXT FCST BY 241400Z
       
TAF CYQH 240538Z 2406/2418 VRB03KT P6SM BKN050 
     TEMPO 2406/2418 BKN020 RMK NXT FCST BY 241200Z
       
TAF CYXY 240538Z 2406/2418 18007KT P6SM FEW080 SCT220 RMK NXT FCST BY 241200Z
       
TAF CYVV 241038Z 2411/2423 06008KT P6SM SCT090 
     BECMG 2412/2414 09010G20KT 
     BECMG 2421/2423 10008KT RMK NXT FCST BY 241400Z
       
TAF CYWL 240642Z 2407/2419 33005KT P6SM FEW040 SCT100 
     TEMPO 2407/2419 BKN040 
     PROB30 2411/2416 1/2SM FG BKN005 RMK NXT FCST BY 241300Z
       
TAF CYQG 240538Z 2406/2506 02008KT P6SM SKC 
     BECMG 2414/2416 08012KT 
     FM241900 09015KT P6SM BKN250 RMK NXT FCST BY 241200Z
       
TAF CYWG 240538Z 2406/2506 07010KT P6SM SKC 
     BECMG 2408/2410 SCT120 BKN240 
     FM241100 07015G25KT P6SM BKN070 OVC120 
     BECMG 2413/2415 2SM -SN OVC020 
     FM241500 07018KT 3SM -SN OVC025 
     TEMPO 2415/2418 1SM -SN OVC008 
     FM241800 07018KT P6SM -SN SCT012 OVC025 
     TEMPO 2418/2506 2SM -SN BKN012 OVC025 RMK NXT FCST BY 241200Z
       
TAF AMD CYQI 240841Z 2408/2418 23010KT 5SM BR OVC002 
     BECMG 2409/2411 P6SM NSW FEW005 
     FM241500 26009KT P6SM SKC 
     BECMG 2416/2418 32010KT RMK NXT FCST BY 241200Z
       
TAF CYZF 240538Z 2406/2506 09010KT P6SM SKC RMK NXT FCST BY 241200Z